createdAt,value
2019-03-18T00:00:01.556Z,3.90
2019-03-18T00:02:29.245Z,3.90
2019-03-18T00:04:57.094Z,3.90
2019-03-18T00:07:24.729Z,3.90
2019-03-18T00:09:52.372Z,3.90
2019-03-18T00:12:20.266Z,3.90
2019-03-18T00:14:47.823Z,3.90
2019-03-18T00:17:15.363Z,3.90
2019-03-18T00:19:43.173Z,3.80
2019-03-18T00:22:10.985Z,3.80
2019-03-18T00:24:38.573Z,3.80
2019-03-18T00:27:06.097Z,3.80
2019-03-18T00:29:33.616Z,3.80
2019-03-18T00:32:01.134Z,3.80
2019-03-18T00:34:28.775Z,3.80
2019-03-18T00:36:56.283Z,3.80
2019-03-18T00:39:23.954Z,3.80
2019-03-18T00:41:51.454Z,3.70
2019-03-18T00:44:19.116Z,3.70
2019-03-18T00:46:46.743Z,3.70
2019-03-18T00:49:15.029Z,3.70
2019-03-18T00:51:42.695Z,3.70
2019-03-18T00:54:10.269Z,3.70
2019-03-18T00:56:38.442Z,3.70
2019-03-18T00:59:05.992Z,3.60
2019-03-18T01:01:33.847Z,3.60
2019-03-18T01:04:01.678Z,3.60
2019-03-18T01:06:29.276Z,3.60
2019-03-18T01:08:56.800Z,3.50
2019-03-18T01:11:24.351Z,3.60
2019-03-18T01:13:52.030Z,3.60
2019-03-18T01:16:19.592Z,3.60
2019-03-18T01:18:47.460Z,3.50
2019-03-18T01:21:14.891Z,3.60
2019-03-18T01:23:42.437Z,3.60
2019-03-18T01:26:10.058Z,3.50
2019-03-18T01:28:37.619Z,3.60
2019-03-18T01:31:05.186Z,3.60
2019-03-18T01:33:32.748Z,3.50
2019-03-18T01:36:00.372Z,3.50
2019-03-18T01:38:28.231Z,3.50
2019-03-18T01:40:56.085Z,3.50
2019-03-18T01:43:23.642Z,3.50
2019-03-18T01:45:51.206Z,3.50
2019-03-18T01:48:18.764Z,3.50
2019-03-18T01:50:46.327Z,3.50
2019-03-18T01:53:14.019Z,3.40
2019-03-18T01:55:41.562Z,3.40
2019-03-18T01:58:09.106Z,3.40
2019-03-18T02:00:37.401Z,3.40
2019-03-18T02:03:05.053Z,3.40
2019-03-18T02:05:32.604Z,3.40
2019-03-18T02:08:00.741Z,3.30
2019-03-18T02:10:28.272Z,3.30
2019-03-18T02:12:56.081Z,3.30
2019-03-18T02:15:23.569Z,3.30
2019-03-18T02:17:51.106Z,3.30
2019-03-18T02:20:20.010Z,3.30
2019-03-18T02:22:47.794Z,3.30
2019-03-18T02:25:15.448Z,3.30
2019-03-18T02:27:43.489Z,3.30
2019-03-18T02:30:11.206Z,3.30
2019-03-18T02:32:38.877Z,3.30
2019-03-18T02:35:06.529Z,3.30
2019-03-18T02:37:34.367Z,3.20
2019-03-18T02:40:01.928Z,3.20
2019-03-18T02:42:29.549Z,3.20
2019-03-18T02:44:57.369Z,3.30
2019-03-18T02:47:24.905Z,3.20
2019-03-18T02:49:52.492Z,3.30
2019-03-18T02:52:20.050Z,3.30
2019-03-18T02:54:47.900Z,3.30
2019-03-18T02:57:15.570Z,3.30
2019-03-18T02:59:43.207Z,3.30
2019-03-18T03:02:10.781Z,3.30
2019-03-18T03:04:38.379Z,3.40
2019-03-18T03:07:06.158Z,3.40
2019-03-18T03:09:33.672Z,3.40
2019-03-18T03:12:01.181Z,3.50
2019-03-18T03:14:28.970Z,3.50
2019-03-18T03:16:56.555Z,3.50
2019-03-18T03:19:24.095Z,3.60
2019-03-18T03:21:51.722Z,3.50
2019-03-18T03:24:19.853Z,3.60
2019-03-18T03:26:47.362Z,3.60
2019-03-18T03:29:15.077Z,3.70
2019-03-18T03:31:42.622Z,3.70
2019-03-18T03:34:13.460Z,3.70
2019-03-18T03:36:39.624Z,3.80
2019-03-18T03:39:07.341Z,3.80
2019-03-18T03:41:34.936Z,3.80
2019-03-18T03:44:02.498Z,3.90
2019-03-18T03:46:42.495Z,3.90
2019-03-18T03:48:59.576Z,3.90
2019-03-18T03:51:27.748Z,3.90
2019-03-18T03:53:55.335Z,3.90
2019-03-18T03:56:22.856Z,4.00
2019-03-18T03:58:50.929Z,4.00
2019-03-18T04:01:18.874Z,4.00
2019-03-18T04:03:46.466Z,4.00
2019-03-18T04:06:14.337Z,4.00
2019-03-18T04:08:41.931Z,4.00
2019-03-18T04:11:09.446Z,4.10
2019-03-18T04:13:37.012Z,4.10
2019-03-18T04:16:04.569Z,4.10
2019-03-18T04:18:32.419Z,4.10
2019-03-18T04:20:59.989Z,4.10
2019-03-18T04:23:27.635Z,4.10
2019-03-18T04:25:55.632Z,4.10
2019-03-18T04:28:23.236Z,4.10
2019-03-18T04:30:50.799Z,4.10
2019-03-18T04:33:18.698Z,4.10
2019-03-18T04:35:46.279Z,4.10
2019-03-18T04:38:13.887Z,4.10
2019-03-18T04:40:41.551Z,4.00
2019-03-18T04:43:09.240Z,4.00
2019-03-18T04:45:36.808Z,4.00
2019-03-18T04:48:04.354Z,4.00
2019-03-18T04:50:32.226Z,4.00
2019-03-18T04:52:59.870Z,4.00
2019-03-18T04:55:27.479Z,4.00
2019-03-18T04:57:55.489Z,4.00
2019-03-18T05:00:23.379Z,4.00
2019-03-18T05:02:50.958Z,3.90
2019-03-18T05:05:19.149Z,3.80
2019-03-18T05:07:46.734Z,3.80
2019-03-18T05:10:14.842Z,3.80
2019-03-18T05:12:42.450Z,3.80
2019-03-18T05:15:10.482Z,3.70
2019-03-18T05:17:38.320Z,3.60
2019-03-18T05:20:06.036Z,3.60
2019-03-18T05:22:33.678Z,3.60
2019-03-18T05:25:01.550Z,3.60
2019-03-18T05:27:29.124Z,3.50
2019-03-18T05:29:56.700Z,3.60
2019-03-18T05:32:24.330Z,3.60
2019-03-18T05:34:51.864Z,3.50
2019-03-18T05:37:19.727Z,3.40
2019-03-18T05:39:47.310Z,3.50
2019-03-18T05:42:15.311Z,3.40
2019-03-18T05:44:43.633Z,3.40
2019-03-18T05:47:11.169Z,3.50
2019-03-18T05:49:38.896Z,3.50
2019-03-18T05:52:06.684Z,3.50
2019-03-18T05:54:34.244Z,3.50
2019-03-18T05:57:01.759Z,3.50
2019-03-18T05:59:29.396Z,3.40
2019-03-18T06:01:57.101Z,3.50
2019-03-18T06:04:25.269Z,3.50
2019-03-18T06:06:53.249Z,3.50
2019-03-18T06:09:21.193Z,3.50
2019-03-18T06:11:48.800Z,3.60
2019-03-18T06:14:16.846Z,3.60
2019-03-18T06:16:44.402Z,3.60
2019-03-18T06:19:12.682Z,3.70
2019-03-18T06:21:40.458Z,3.70
2019-03-18T06:24:07.943Z,3.70
2019-03-18T06:26:35.536Z,3.70
2019-03-18T06:29:03.048Z,3.80
2019-03-18T06:31:30.675Z,3.80
2019-03-18T06:33:58.542Z,3.90
2019-03-18T06:36:26.500Z,3.90
2019-03-18T06:38:54.604Z,4.00
2019-03-18T06:41:22.552Z,4.00
2019-03-18T06:43:50.099Z,4.10
2019-03-18T06:46:18.025Z,4.10
2019-03-18T06:48:45.758Z,4.10
2019-03-18T06:51:13.343Z,4.20
2019-03-18T06:53:41.214Z,4.30
2019-03-18T06:56:08.752Z,4.40
2019-03-18T06:58:36.652Z,4.50
2019-03-18T07:01:04.301Z,4.60
2019-03-18T07:03:32.069Z,4.70
2019-03-18T07:05:59.846Z,4.80
2019-03-18T07:08:27.376Z,4.80
2019-03-18T07:10:55.339Z,4.90
2019-03-18T07:13:23.045Z,4.90
2019-03-18T07:15:50.759Z,4.90
2019-03-18T07:18:19.022Z,4.90
2019-03-18T07:20:46.894Z,5.00
2019-03-18T07:23:14.412Z,5.00
2019-03-18T07:25:42.031Z,5.00
2019-03-18T07:28:09.892Z,5.00
2019-03-18T07:30:38.128Z,5.00
2019-03-18T07:33:05.695Z,5.10
2019-03-18T07:35:33.554Z,5.10
2019-03-18T07:38:01.906Z,5.10
2019-03-18T07:40:30.228Z,5.10
2019-03-18T07:42:58.376Z,5.10
2019-03-18T07:45:26.000Z,5.10
2019-03-18T07:47:53.751Z,5.10
2019-03-18T07:50:21.718Z,5.10
2019-03-18T07:52:49.290Z,5.10
2019-03-18T07:55:17.050Z,5.10
2019-03-18T07:57:44.568Z,5.10
2019-03-18T08:00:12.226Z,5.10
2019-03-18T08:02:39.851Z,5.10
2019-03-18T08:05:08.076Z,5.20
2019-03-18T08:07:35.606Z,5.20
2019-03-18T08:10:03.495Z,5.20
2019-03-18T08:12:31.464Z,5.30
2019-03-18T08:14:59.329Z,5.50
2019-03-18T08:17:26.876Z,5.70
2019-03-18T08:19:55.014Z,5.80
2019-03-18T08:22:22.942Z,5.90
2019-03-18T08:24:50.768Z,5.90
2019-03-18T08:27:18.376Z,6.00
2019-03-18T08:29:46.150Z,6.10
2019-03-18T08:32:14.263Z,6.10
2019-03-18T08:34:42.080Z,6.20
2019-03-18T08:37:09.953Z,6.30
2019-03-18T08:39:37.510Z,6.40
2019-03-18T08:42:05.311Z,6.50
2019-03-18T08:44:32.798Z,6.70
2019-03-18T08:47:00.833Z,6.60
2019-03-18T08:49:29.257Z,6.60
2019-03-18T08:51:56.747Z,6.60
2019-03-18T08:54:24.328Z,6.70
2019-03-18T08:56:51.975Z,6.90
2019-03-18T08:59:19.485Z,7.10
2019-03-18T09:01:47.497Z,7.10
2019-03-18T09:04:15.359Z,7.20
2019-03-18T09:06:42.991Z,7.40
2019-03-18T09:09:10.891Z,7.50
2019-03-18T09:11:38.379Z,7.70
2019-03-18T09:14:05.816Z,7.80
2019-03-18T09:16:33.438Z,7.90
2019-03-18T09:19:08.554Z,7.90
2019-03-18T09:21:31.014Z,8.00
2019-03-18T09:23:58.543Z,8.00
2019-03-18T09:26:26.225Z,8.00
2019-03-18T09:28:54.080Z,7.90
2019-03-18T09:31:22.052Z,7.80
2019-03-18T09:33:49.962Z,7.70
2019-03-18T09:36:17.659Z,7.60
2019-03-18T09:38:45.469Z,7.50
2019-03-18T09:41:13.101Z,7.50
2019-03-18T09:43:40.744Z,7.60
2019-03-18T09:46:08.279Z,7.60
2019-03-18T09:48:35.766Z,7.70
2019-03-18T09:51:03.375Z,7.80
2019-03-18T09:53:31.070Z,7.80
2019-03-18T09:55:58.649Z,7.90
2019-03-18T09:58:26.844Z,8.10
2019-03-18T10:00:55.529Z,8.40
2019-03-18T10:03:23.203Z,8.60
2019-03-18T10:05:50.725Z,8.80
2019-03-18T10:08:18.249Z,8.70
2019-03-18T10:10:46.335Z,8.90
2019-03-18T10:13:13.882Z,9.00
2019-03-18T10:15:41.371Z,9.00
2019-03-18T10:18:08.920Z,8.80
2019-03-18T10:20:36.459Z,8.50
2019-03-18T10:23:04.031Z,8.30
2019-03-18T10:25:31.654Z,8.20
2019-03-18T10:27:59.151Z,8.20
2019-03-18T10:30:26.991Z,8.30
2019-03-18T10:32:54.475Z,8.30
2019-03-18T10:35:21.944Z,8.20
2019-03-18T10:37:49.769Z,8.20
2019-03-18T10:40:17.673Z,8.20
2019-03-18T10:42:45.254Z,8.20
2019-03-18T10:45:13.224Z,8.10
2019-03-18T10:47:41.052Z,8.00
2019-03-18T10:50:09.274Z,8.20
2019-03-18T10:52:37.702Z,8.30
2019-03-18T10:55:06.352Z,8.50
2019-03-18T10:57:34.307Z,8.60
2019-03-18T11:00:02.112Z,8.60
2019-03-18T11:02:29.883Z,8.50
2019-03-18T11:04:57.467Z,8.50
2019-03-18T11:07:25.096Z,8.40
2019-03-18T11:09:52.703Z,8.20
2019-03-18T11:12:20.264Z,8.10
2019-03-18T11:14:48.336Z,7.90
2019-03-18T11:17:15.933Z,7.80
2019-03-18T11:19:43.461Z,7.80
2019-03-18T11:22:11.051Z,8.20
2019-03-18T11:24:38.591Z,8.50
2019-03-18T11:27:06.100Z,8.30
2019-03-18T11:29:34.724Z,8.40
2019-03-18T11:32:02.281Z,8.70
2019-03-18T11:34:29.934Z,8.80
2019-03-18T11:36:57.493Z,8.80
2019-03-18T11:39:25.037Z,8.90
2019-03-18T11:41:52.576Z,9.00
2019-03-18T11:44:20.137Z,9.10
2019-03-18T11:46:48.170Z,9.40
2019-03-18T11:49:15.688Z,9.80
2019-03-18T11:51:43.259Z,9.90
2019-03-18T11:54:10.811Z,9.80
2019-03-18T11:56:38.422Z,9.60
2019-03-18T11:59:06.111Z,9.80
2019-03-18T12:01:33.789Z,10.10
2019-03-18T12:04:01.343Z,10.00
2019-03-18T12:06:28.939Z,10.00
2019-03-18T12:08:56.641Z,10.00
2019-03-18T12:11:24.141Z,9.90
2019-03-18T12:13:51.724Z,9.70
2019-03-18T12:16:19.380Z,9.60
2019-03-18T12:18:47.265Z,9.30
2019-03-18T12:21:16.043Z,9.20
2019-03-18T12:23:43.690Z,9.00
2019-03-18T12:26:11.221Z,8.70
2019-03-18T12:28:38.744Z,8.60
2019-03-18T12:31:06.395Z,8.50
2019-03-18T12:33:34.110Z,8.40
2019-03-18T12:36:01.556Z,8.30
2019-03-18T12:38:29.172Z,8.20
2019-03-18T12:40:56.675Z,8.00
2019-03-18T12:43:24.315Z,7.90
2019-03-18T12:45:52.448Z,7.80
2019-03-18T12:48:20.007Z,7.70
2019-03-18T12:50:55.808Z,7.60
2019-03-18T12:53:16.929Z,7.50
2019-03-18T12:55:44.755Z,7.30
2019-03-18T12:58:12.371Z,7.20
2019-03-18T13:00:39.928Z,7.50
2019-03-18T13:03:07.547Z,7.80
2019-03-18T13:05:35.476Z,8.30
2019-03-18T13:08:03.266Z,8.60
2019-03-18T13:10:30.876Z,8.90
2019-03-18T13:12:58.442Z,9.20
2019-03-18T13:15:25.876Z,9.40
2019-03-18T13:17:53.500Z,9.60
2019-03-18T13:20:21.126Z,9.70
2019-03-18T13:22:48.792Z,9.70
2019-03-18T13:25:16.470Z,10.10
2019-03-18T13:27:44.013Z,10.30
2019-03-18T13:30:15.415Z,10.40
2019-03-18T13:32:42.900Z,10.40
2019-03-18T13:35:10.912Z,10.40
2019-03-18T13:37:38.416Z,10.60
2019-03-18T13:40:07.097Z,10.80
2019-03-18T13:42:36.441Z,10.80
2019-03-18T13:45:05.962Z,10.80
2019-03-18T13:47:34.378Z,10.80
2019-03-18T13:50:02.371Z,11.10
2019-03-18T13:52:30.602Z,11.30
2019-03-18T13:54:58.820Z,11.30
2019-03-18T13:57:27.010Z,11.30
2019-03-18T13:59:56.083Z,11.40
2019-03-18T14:02:24.459Z,11.60
2019-03-18T14:04:52.729Z,11.80
2019-03-18T14:07:22.501Z,11.90
2019-03-18T14:09:50.698Z,11.70
2019-03-18T14:12:18.606Z,11.20
2019-03-18T14:14:46.902Z,11.10
2019-03-18T14:17:15.597Z,11.10
2019-03-18T14:19:43.647Z,11.10
2019-03-18T14:22:11.495Z,11.10
2019-03-18T14:24:39.964Z,10.90
2019-03-18T14:27:08.447Z,10.70
2019-03-18T14:29:36.749Z,10.10
2019-03-18T14:32:05.274Z,9.80
2019-03-18T14:34:33.228Z,9.70
2019-03-18T14:37:01.451Z,9.90
2019-03-18T14:39:29.499Z,10.10
2019-03-18T14:41:57.735Z,10.40
2019-03-18T14:44:25.994Z,10.70
2019-03-18T14:46:54.158Z,11.00
2019-03-18T14:49:22.413Z,11.40
2019-03-18T14:51:50.507Z,11.60
2019-03-18T14:54:18.669Z,11.10
2019-03-18T14:56:47.624Z,10.50
2019-03-18T14:59:15.507Z,10.10
2019-03-18T15:01:43.500Z,9.60
2019-03-18T15:04:12.020Z,9.60
2019-03-18T15:06:40.520Z,9.30
2019-03-18T15:09:08.731Z,9.30
2019-03-18T15:11:36.689Z,9.20
2019-03-18T15:14:04.629Z,9.40
2019-03-18T15:16:32.641Z,9.60
2019-03-18T15:19:00.891Z,9.80
2019-03-18T15:21:28.926Z,9.70
2019-03-18T15:23:57.227Z,10.00
2019-03-18T15:26:25.492Z,10.30
2019-03-18T15:28:53.438Z,10.60
2019-03-18T15:31:21.848Z,10.90
2019-03-18T15:33:50.035Z,11.20
2019-03-18T15:36:17.840Z,11.00
2019-03-18T15:38:45.774Z,10.80
2019-03-18T15:41:14.085Z,10.90
2019-03-18T15:43:42.224Z,10.90
2019-03-18T15:46:10.864Z,10.90
2019-03-18T15:48:39.017Z,10.60
2019-03-18T15:51:07.166Z,10.50
2019-03-18T15:53:35.529Z,10.40
2019-03-18T15:56:03.545Z,10.40
2019-03-18T15:58:31.779Z,10.40
2019-03-18T16:00:59.696Z,10.60
2019-03-18T16:03:28.343Z,10.50
2019-03-18T16:05:56.396Z,10.50
2019-03-18T16:08:24.339Z,10.50
2019-03-18T16:10:52.198Z,10.40
2019-03-18T16:13:19.779Z,10.30
2019-03-18T16:15:47.601Z,10.20
2019-03-18T16:18:15.443Z,10.00
2019-03-18T16:20:43.029Z,9.80
2019-03-18T16:23:10.655Z,9.70
2019-03-18T16:25:38.243Z,9.60
2019-03-18T16:28:05.822Z,9.40
2019-03-18T16:30:33.376Z,9.30
2019-03-18T16:33:00.938Z,9.20
2019-03-18T16:35:28.484Z,9.20
2019-03-18T16:37:56.021Z,9.00
2019-03-18T16:40:23.881Z,9.00
2019-03-18T16:42:51.533Z,8.90
2019-03-18T16:45:19.150Z,8.80
2019-03-18T16:47:47.426Z,8.80
2019-03-18T16:50:15.262Z,8.80
2019-03-18T16:52:42.741Z,8.70
2019-03-18T16:55:11.022Z,8.70
2019-03-18T16:57:38.720Z,8.60
2019-03-18T17:00:08.763Z,8.50
2019-03-18T17:02:36.967Z,8.50
2019-03-18T17:05:04.719Z,8.40
2019-03-18T17:07:32.321Z,8.30
2019-03-18T17:09:59.904Z,8.20
2019-03-18T17:12:27.791Z,8.20
2019-03-18T17:14:55.394Z,8.10
2019-03-18T17:17:23.831Z,8.00
2019-03-18T17:19:51.425Z,7.90
2019-03-18T17:22:19.539Z,7.90
2019-03-18T17:24:49.161Z,7.80
2019-03-18T17:27:16.687Z,7.80
2019-03-18T17:29:44.553Z,7.70
2019-03-18T17:32:12.795Z,7.70
2019-03-18T17:34:40.382Z,7.70
2019-03-18T17:37:08.299Z,7.70
2019-03-18T17:39:35.941Z,7.70
2019-03-18T17:42:03.550Z,7.70
2019-03-18T17:44:31.500Z,7.70
2019-03-18T17:46:59.089Z,7.70
2019-03-18T17:49:27.305Z,7.60
2019-03-18T17:51:54.888Z,7.60
2019-03-18T17:54:22.484Z,7.60
2019-03-18T17:56:50.019Z,7.50
2019-03-18T17:59:17.639Z,7.40
2019-03-18T18:01:45.631Z,7.40
2019-03-18T18:04:13.397Z,7.40
2019-03-18T18:06:41.176Z,7.40
2019-03-18T18:09:08.887Z,7.30
2019-03-18T18:11:36.494Z,7.30
2019-03-18T18:14:04.117Z,7.30
2019-03-18T18:16:32.035Z,7.20
2019-03-18T18:18:59.633Z,7.20
2019-03-18T18:21:27.247Z,7.20
2019-03-18T18:23:55.047Z,7.10
2019-03-18T18:26:22.834Z,7.10
2019-03-18T18:28:50.307Z,7.00
2019-03-18T18:31:18.979Z,7.00
2019-03-18T18:33:46.558Z,7.00
2019-03-18T18:36:14.402Z,7.00
2019-03-18T18:38:42.504Z,7.00
2019-03-18T18:41:10.174Z,6.90
2019-03-18T18:43:37.791Z,6.90
2019-03-18T18:46:05.313Z,6.90
2019-03-18T18:48:33.483Z,6.80
2019-03-18T18:51:00.933Z,6.80
2019-03-18T18:53:28.737Z,6.80
2019-03-18T18:55:56.344Z,6.80
2019-03-18T18:58:23.954Z,6.80
2019-03-18T19:00:51.779Z,6.70
2019-03-18T19:03:19.317Z,6.70
2019-03-18T19:05:46.911Z,6.70
2019-03-18T19:08:14.461Z,6.70
2019-03-18T19:10:42.706Z,6.60
2019-03-18T19:13:10.291Z,6.60
2019-03-18T19:15:37.755Z,6.60
2019-03-18T19:18:05.340Z,6.60
2019-03-18T19:20:33.274Z,6.60
2019-03-18T19:23:01.134Z,6.60
2019-03-18T19:25:29.340Z,6.50
2019-03-18T19:27:56.919Z,6.50
2019-03-18T19:30:24.830Z,6.50
2019-03-18T19:32:53.119Z,6.50
2019-03-18T19:35:21.355Z,6.40
2019-03-18T19:37:49.294Z,6.40
2019-03-18T19:40:16.854Z,6.40
2019-03-18T19:42:44.880Z,6.40
2019-03-18T19:45:12.685Z,6.40
2019-03-18T19:47:40.473Z,6.40
2019-03-18T19:50:10.674Z,6.40
2019-03-18T19:52:38.341Z,6.40
2019-03-18T19:55:06.436Z,6.40
2019-03-18T19:57:34.413Z,6.40
2019-03-18T20:00:02.380Z,6.30
2019-03-18T20:02:29.979Z,6.40
2019-03-18T20:04:57.619Z,6.30
2019-03-18T20:07:25.163Z,6.30
2019-03-18T20:09:52.985Z,6.30
2019-03-18T20:12:20.443Z,6.30
2019-03-18T20:14:48.499Z,6.30
2019-03-18T20:17:16.073Z,6.30
2019-03-18T20:19:43.793Z,6.30
2019-03-18T20:22:11.576Z,6.30
2019-03-18T20:24:39.457Z,6.30
2019-03-18T20:27:07.355Z,6.30
2019-03-18T20:29:35.002Z,6.30
2019-03-18T20:32:02.886Z,6.30
2019-03-18T20:34:30.680Z,6.30
2019-03-18T20:36:58.995Z,6.30
2019-03-18T20:39:26.824Z,6.30
2019-03-18T20:41:54.758Z,6.30
2019-03-18T20:44:23.026Z,6.30
2019-03-18T20:46:50.792Z,6.30
2019-03-18T20:49:18.715Z,6.30
2019-03-18T20:51:46.486Z,6.30
2019-03-18T20:54:14.245Z,6.30
2019-03-18T20:56:41.768Z,6.30
2019-03-18T20:59:09.400Z,6.30
2019-03-18T21:01:37.266Z,6.40
2019-03-18T21:04:04.884Z,6.30
2019-03-18T21:06:32.543Z,6.30
2019-03-18T21:09:00.337Z,6.30
2019-03-18T21:11:28.736Z,6.30
2019-03-18T21:13:57.324Z,6.30
2019-03-18T21:16:25.475Z,6.30
2019-03-18T21:18:53.041Z,6.30
2019-03-18T21:21:20.795Z,6.20
2019-03-18T21:23:48.384Z,6.20
2019-03-18T21:26:16.340Z,6.20
2019-03-18T21:28:44.279Z,6.20
2019-03-18T21:31:12.131Z,6.20
2019-03-18T21:33:39.701Z,6.20
2019-03-18T21:36:07.708Z,6.20
2019-03-18T21:38:35.724Z,6.10
2019-03-18T21:41:03.549Z,6.20
2019-03-18T21:43:31.114Z,6.20
2019-03-18T21:45:59.045Z,6.10
2019-03-18T21:48:26.985Z,6.10
2019-03-18T21:50:54.855Z,6.10
2019-03-18T21:53:23.036Z,6.10
2019-03-18T21:55:51.151Z,6.10
2019-03-18T21:58:19.323Z,6.00
2019-03-18T22:00:47.230Z,5.90
2019-03-18T22:03:14.998Z,5.80
2019-03-18T22:05:43.615Z,5.80
2019-03-18T22:08:11.317Z,5.80
2019-03-18T22:10:38.941Z,5.70
2019-03-18T22:13:07.091Z,5.60
2019-03-18T22:15:34.802Z,5.60
2019-03-18T22:18:02.366Z,5.50
2019-03-18T22:20:30.351Z,5.40
2019-03-18T22:22:57.824Z,5.40
2019-03-18T22:25:26.079Z,5.40
2019-03-18T22:27:55.331Z,5.30
2019-03-18T22:30:23.399Z,5.20
2019-03-18T22:32:50.935Z,5.00
2019-03-18T22:35:18.486Z,4.90
2019-03-18T22:37:46.161Z,4.90
2019-03-18T22:40:13.734Z,4.80
2019-03-18T22:42:41.248Z,4.70
2019-03-18T22:45:09.518Z,4.60
2019-03-18T22:47:37.042Z,4.50
2019-03-18T22:50:05.154Z,4.40
2019-03-18T22:52:32.984Z,4.40
2019-03-18T22:55:00.815Z,4.30
2019-03-18T22:57:28.639Z,4.30
2019-03-18T22:59:56.225Z,4.30
2019-03-18T23:02:24.079Z,4.20
2019-03-18T23:04:51.667Z,4.20
2019-03-18T23:07:19.326Z,4.20
2019-03-18T23:09:47.982Z,4.10
2019-03-18T23:12:15.561Z,4.10
2019-03-18T23:14:43.145Z,4.10
2019-03-18T23:17:10.677Z,4.00
2019-03-18T23:19:38.376Z,3.90
2019-03-18T23:22:06.205Z,3.90
2019-03-18T23:24:33.759Z,3.90
2019-03-18T23:27:01.379Z,3.90
2019-03-18T23:29:29.014Z,3.90
2019-03-18T23:31:57.039Z,3.80
2019-03-18T23:34:24.548Z,3.70
2019-03-18T23:36:52.132Z,3.70
2019-03-18T23:39:19.705Z,3.60
2019-03-18T23:41:47.224Z,3.60
2019-03-18T23:44:15.084Z,3.60
2019-03-18T23:46:42.613Z,3.50
2019-03-18T23:49:10.079Z,3.50
2019-03-18T23:51:37.897Z,3.40
2019-03-18T23:54:05.477Z,3.40
2019-03-18T23:56:33.239Z,3.40
2019-03-18T23:59:00.914Z,3.40
